createdAt,value
2019-05-21T00:00:02.978Z,77.74
2019-05-21T00:01:07.221Z,77.71
2019-05-21T00:02:10.865Z,77.72
2019-05-21T00:03:15.073Z,77.65
2019-05-21T00:04:27.950Z,77.63
2019-05-21T00:05:25.180Z,77.63
2019-05-21T00:06:28.875Z,77.47
2019-05-21T00:07:33.131Z,77.42
2019-05-21T00:08:36.770Z,77.39
2019-05-21T00:09:40.988Z,77.46
2019-05-21T00:10:44.717Z,77.47
2019-05-21T00:11:48.909Z,77.85
2019-05-21T00:12:52.532Z,77.85
2019-05-21T00:13:56.742Z,77.63
2019-05-21T00:15:00.442Z,77.72
2019-05-21T00:16:04.705Z,78.30
2019-05-21T00:17:08.341Z,78.43
2019-05-21T00:18:12.620Z,78.43
2019-05-21T00:19:16.622Z,78.56
2019-05-21T00:20:21.018Z,78.64
2019-05-21T00:21:24.711Z,78.75
2019-05-21T00:22:28.900Z,78.80
2019-05-21T00:23:32.531Z,78.80
2019-05-21T00:24:36.842Z,78.93
2019-05-21T00:25:40.839Z,78.93
2019-05-21T00:26:45.023Z,78.90
2019-05-21T00:27:48.714Z,78.86
2019-05-21T00:29:28.959Z,78.84
2019-05-21T00:31:09.100Z,79.17
2019-05-21T00:32:49.367Z,79.17
2019-05-21T00:34:43.266Z,79.18
2019-05-21T00:36:12.011Z,79.22
2019-05-21T00:37:52.700Z,79.24
2019-05-21T00:39:32.379Z,79.28
2019-05-21T00:41:12.968Z,79.19
2019-05-21T00:42:19.523Z,79.05
2019-05-21T00:43:41.902Z,78.80
2019-05-21T00:44:45.927Z,78.79
2019-05-21T00:45:50.131Z,78.75
2019-05-21T00:46:53.776Z,78.80
2019-05-21T00:47:57.964Z,78.78
2019-05-21T00:49:02.582Z,78.71
2019-05-21T00:50:08.472Z,78.32
2019-05-21T00:51:12.125Z,78.07
2019-05-21T00:52:16.424Z,78.24
2019-05-21T00:53:20.034Z,78.31
2019-05-21T00:54:24.260Z,78.35
2019-05-21T00:55:28.015Z,78.74
2019-05-21T00:56:32.527Z,78.81
2019-05-21T00:57:36.161Z,78.69
2019-05-21T00:58:40.367Z,78.67
2019-05-21T00:59:44.027Z,78.63
2019-05-21T01:00:48.206Z,78.68
2019-05-21T01:01:51.922Z,78.84
2019-05-21T01:02:56.220Z,78.91
2019-05-21T01:03:59.853Z,79.17
2019-05-21T01:05:04.370Z,79.31
2019-05-21T01:06:08.025Z,79.20
2019-05-21T01:07:12.287Z,79.09
2019-05-21T01:08:16.024Z,79.26
2019-05-21T01:09:20.333Z,79.26
2019-05-21T01:10:23.993Z,79.16
2019-05-21T01:11:28.205Z,79.07
2019-05-21T01:12:32.142Z,79.04
2019-05-21T01:13:36.345Z,79.34
2019-05-21T01:14:40.000Z,79.34
2019-05-21T01:15:44.320Z,79.01
2019-05-21T01:16:48.026Z,79.09
2019-05-21T01:17:52.335Z,78.93
2019-05-21T01:18:55.962Z,78.69
2019-05-21T01:20:00.151Z,78.69
2019-05-21T01:21:04.296Z,78.36
2019-05-21T01:22:08.510Z,77.36
2019-05-21T01:23:12.147Z,77.16
2019-05-21T01:24:16.433Z,77.16
2019-05-21T01:25:20.063Z,77.67
2019-05-21T01:26:24.295Z,77.21
2019-05-21T01:27:27.932Z,77.21
2019-05-21T01:28:32.138Z,77.28
2019-05-21T01:29:35.775Z,77.12
2019-05-21T01:30:39.954Z,76.82
2019-05-21T01:31:43.959Z,75.86
2019-05-21T01:32:48.145Z,75.99
2019-05-21T01:33:51.822Z,76.13
2019-05-21T01:34:56.130Z,76.46
2019-05-21T01:36:00.151Z,76.54
2019-05-21T01:37:04.377Z,76.54
2019-05-21T01:38:08.134Z,76.49
2019-05-21T01:39:12.745Z,76.52
2019-05-21T01:40:16.370Z,76.53
2019-05-21T01:41:20.652Z,76.63
2019-05-21T01:42:24.318Z,76.62
2019-05-21T01:43:28.864Z,76.64
2019-05-21T01:44:32.543Z,76.75
2019-05-21T01:45:36.732Z,76.68
2019-05-21T01:46:40.299Z,76.84
2019-05-21T01:47:44.649Z,76.78
2019-05-21T01:48:48.312Z,76.80
2019-05-21T01:49:52.555Z,76.83
2019-05-21T01:50:56.182Z,76.87
2019-05-21T01:52:00.362Z,76.97
2019-05-21T01:53:04.063Z,77.06
2019-05-21T01:54:08.345Z,77.11
2019-05-21T01:55:11.986Z,77.01
2019-05-21T01:56:16.175Z,76.96
2019-05-21T01:57:20.243Z,76.88
2019-05-21T01:58:24.459Z,76.81
2019-05-21T01:59:28.143Z,76.89
2019-05-21T02:00:32.452Z,77.00
2019-05-21T02:01:36.082Z,76.99
2019-05-21T02:02:40.239Z,76.79
2019-05-21T02:03:43.937Z,76.02
2019-05-21T02:04:48.244Z,76.09
2019-05-21T02:05:52.152Z,76.26
2019-05-21T02:06:59.027Z,76.36
2019-05-21T02:08:02.669Z,76.42
2019-05-21T02:09:08.178Z,76.23
2019-05-21T02:10:12.140Z,76.18
2019-05-21T02:11:16.446Z,76.11
2019-05-21T02:12:20.513Z,76.18
2019-05-21T02:13:24.816Z,76.12
2019-05-21T02:14:28.508Z,76.05
2019-05-21T02:15:32.750Z,76.00
2019-05-21T02:16:36.807Z,75.90
2019-05-21T02:17:41.236Z,75.60
2019-05-21T02:18:44.866Z,75.15
2019-05-21T02:19:49.162Z,75.12
2019-05-21T02:20:52.794Z,75.20
2019-05-21T02:21:57.000Z,75.42
2019-05-21T02:23:00.761Z,75.42
2019-05-21T02:24:05.066Z,75.18
2019-05-21T02:25:09.753Z,75.17
2019-05-21T02:26:14.076Z,75.12
2019-05-21T02:27:18.009Z,75.03
2019-05-21T02:28:22.537Z,75.04
2019-05-21T02:29:26.174Z,75.16
2019-05-21T02:30:30.422Z,75.52
2019-05-21T02:31:36.114Z,75.52
2019-05-21T02:32:41.068Z,75.40
2019-05-21T02:33:44.607Z,75.33
2019-05-21T02:34:49.185Z,75.32
2019-05-21T02:35:54.837Z,75.48
2019-05-21T02:36:58.822Z,75.65
2019-05-21T02:38:02.447Z,75.69
2019-05-21T02:39:08.748Z,75.76
2019-05-21T02:40:12.898Z,75.71
2019-05-21T02:41:17.119Z,75.75
2019-05-21T02:42:20.698Z,76.13
2019-05-21T02:43:25.296Z,76.13
2019-05-21T02:44:28.863Z,75.91
2019-05-21T02:45:33.039Z,76.22
2019-05-21T02:46:36.734Z,75.96
2019-05-21T02:47:40.939Z,76.03
2019-05-21T02:48:44.567Z,76.15
2019-05-21T02:49:48.779Z,76.20
2019-05-21T02:50:52.804Z,76.31
2019-05-21T02:51:57.018Z,76.45
2019-05-21T02:53:00.668Z,76.50
2019-05-21T02:54:05.329Z,76.52
2019-05-21T02:55:09.369Z,76.49
2019-05-21T02:56:13.581Z,76.49
2019-05-21T02:57:17.341Z,76.48
2019-05-21T02:58:21.546Z,76.52
2019-05-21T02:59:25.172Z,76.59
2019-05-21T03:00:30.537Z,76.47
2019-05-21T03:01:35.831Z,76.71
2019-05-21T03:02:42.902Z,76.83
2019-05-21T03:03:46.530Z,76.87
2019-05-21T03:04:51.019Z,76.87
2019-05-21T03:06:12.460Z,76.77
2019-05-21T03:07:04.815Z,76.56
2019-05-21T03:08:08.541Z,76.37
2019-05-21T03:09:12.774Z,76.52
2019-05-21T03:10:16.404Z,76.52
2019-05-21T03:11:20.593Z,76.27
2019-05-21T03:12:24.311Z,76.16
2019-05-21T03:13:28.615Z,75.83
2019-05-21T03:14:32.249Z,76.13
2019-05-21T03:15:36.447Z,76.08
2019-05-21T03:16:40.071Z,75.95
2019-05-21T03:17:44.259Z,75.78
2019-05-21T03:18:48.009Z,75.63
2019-05-21T03:19:52.345Z,75.44
2019-05-21T03:20:55.970Z,75.44
2019-05-21T03:22:00.161Z,75.45
2019-05-21T03:23:03.833Z,75.43
2019-05-21T03:24:08.008Z,75.45
2019-05-21T03:25:12.276Z,75.37
2019-05-21T03:26:16.778Z,75.37
2019-05-21T03:27:20.452Z,75.60
2019-05-21T03:28:25.054Z,75.67
2019-05-21T03:29:28.656Z,75.74
2019-05-21T03:30:32.909Z,75.69
2019-05-21T03:31:36.537Z,75.73
2019-05-21T03:32:40.734Z,75.85
2019-05-21T03:33:44.447Z,75.63
2019-05-21T03:34:48.756Z,75.63
2019-05-21T03:35:52.485Z,75.85
2019-05-21T03:36:56.761Z,75.86
2019-05-21T03:38:00.398Z,75.88
2019-05-21T03:39:05.715Z,75.83
2019-05-21T03:40:09.642Z,75.64
2019-05-21T03:41:13.992Z,75.83
2019-05-21T03:42:17.620Z,75.86
2019-05-21T03:43:21.873Z,75.81
2019-05-21T03:44:25.550Z,75.69
2019-05-21T03:45:29.727Z,76.06
2019-05-21T03:46:34.322Z,77.62
2019-05-21T03:47:38.580Z,77.32
2019-05-21T03:48:42.227Z,77.24
2019-05-21T03:49:46.523Z,77.25
2019-05-21T03:50:50.549Z,77.24
2019-05-21T03:51:54.766Z,77.47
2019-05-21T03:52:58.394Z,77.74
2019-05-21T03:54:02.512Z,77.33
2019-05-21T03:55:06.295Z,77.07
2019-05-21T03:56:10.601Z,77.08
2019-05-21T03:57:14.260Z,76.82
2019-05-21T03:58:18.505Z,76.44
2019-05-21T03:59:22.623Z,76.19
2019-05-21T04:00:26.818Z,76.09
2019-05-21T04:01:30.501Z,75.92
2019-05-21T04:02:34.724Z,75.73
2019-05-21T04:03:38.798Z,75.78
2019-05-21T04:04:43.000Z,75.76
2019-05-21T04:05:46.627Z,75.84
2019-05-21T04:06:52.941Z,75.50
2019-05-21T04:07:56.865Z,75.50
2019-05-21T04:09:00.977Z,75.64
2019-05-21T04:10:14.898Z,75.16
2019-05-21T04:11:19.089Z,75.16
2019-05-21T04:12:22.695Z,75.53
2019-05-21T04:13:28.159Z,75.61
2019-05-21T04:14:33.453Z,75.44
2019-05-21T04:15:56.910Z,75.44
2019-05-21T04:17:02.805Z,75.53
2019-05-21T04:18:27.138Z,75.56
2019-05-21T04:19:44.397Z,75.60
2019-05-21T04:20:48.517Z,75.34
2019-05-21T04:21:52.246Z,75.10
2019-05-21T04:22:56.598Z,75.25
2019-05-21T04:24:00.255Z,75.27
2019-05-21T04:25:11.075Z,75.47
2019-05-21T04:26:14.869Z,75.72
2019-05-21T04:27:19.051Z,75.93
2019-05-21T04:28:22.701Z,76.26
2019-05-21T04:29:27.031Z,76.51
2019-05-21T04:30:30.649Z,76.70
2019-05-21T04:31:35.230Z,76.78
2019-05-21T04:32:38.876Z,76.69
2019-05-21T04:33:43.069Z,76.75
2019-05-21T04:34:46.804Z,76.78
2019-05-21T04:35:51.112Z,76.95
2019-05-21T04:37:09.392Z,76.91
2019-05-21T04:38:00.854Z,77.21
2019-05-21T04:39:05.987Z,77.21
2019-05-21T04:40:10.505Z,77.08
2019-05-21T04:41:14.216Z,77.39
2019-05-21T04:42:18.417Z,77.72
2019-05-21T04:43:22.428Z,77.84
2019-05-21T04:44:26.649Z,77.50
2019-05-21T04:45:30.301Z,77.50
2019-05-21T04:46:34.501Z,77.45
2019-05-21T04:47:38.162Z,77.17
2019-05-21T04:48:42.395Z,77.30
2019-05-21T04:49:46.029Z,77.30
2019-05-21T04:50:50.280Z,77.33
2019-05-21T04:51:53.910Z,77.39
2019-05-21T04:52:58.094Z,77.47
2019-05-21T04:54:01.781Z,77.49
2019-05-21T04:55:07.096Z,77.49
2019-05-21T04:56:10.689Z,76.92
2019-05-21T04:57:14.880Z,76.92
2019-05-21T04:58:18.490Z,77.04
2019-05-21T04:59:22.645Z,77.28
2019-05-21T05:00:26.320Z,77.32
2019-05-21T05:01:30.597Z,77.20
2019-05-21T05:02:34.231Z,77.71
2019-05-21T05:03:38.424Z,77.89
2019-05-21T05:04:42.143Z,77.94
2019-05-21T05:05:46.350Z,77.99
2019-05-21T05:06:50.085Z,78.12
2019-05-21T05:07:54.410Z,78.40
2019-05-21T05:08:58.029Z,79.39
2019-05-21T05:10:02.665Z,78.80
2019-05-21T05:11:06.316Z,78.33
2019-05-21T05:12:10.545Z,78.07
2019-05-21T05:13:14.211Z,77.26
2019-05-21T05:14:18.771Z,77.26
2019-05-21T05:15:22.417Z,77.75
2019-05-21T05:16:26.726Z,77.58
2019-05-21T05:17:30.380Z,77.63
2019-05-21T05:18:34.569Z,77.74
2019-05-21T05:19:38.686Z,77.76
2019-05-21T05:20:42.892Z,77.42
2019-05-21T05:21:46.504Z,77.29
2019-05-21T05:22:50.727Z,77.29
2019-05-21T05:23:54.381Z,76.92
2019-05-21T05:24:58.564Z,76.92
2019-05-21T05:26:04.270Z,77.04
2019-05-21T05:27:08.482Z,76.95
2019-05-21T05:28:12.144Z,76.96
2019-05-21T05:29:16.463Z,77.68
2019-05-21T05:30:20.255Z,77.42
2019-05-21T05:31:24.661Z,77.24
2019-05-21T05:32:28.294Z,77.22
2019-05-21T05:33:33.483Z,77.29
2019-05-21T05:34:37.111Z,76.85
2019-05-21T05:35:41.295Z,76.74
2019-05-21T05:36:45.073Z,76.74
2019-05-21T05:37:49.389Z,76.12
2019-05-21T05:38:53.052Z,76.16
2019-05-21T05:39:57.682Z,76.45
2019-05-21T05:41:01.892Z,76.23
2019-05-21T05:42:06.077Z,76.14
2019-05-21T05:43:12.356Z,76.04
2019-05-21T05:44:19.454Z,76.61
2019-05-21T05:45:23.281Z,76.61
2019-05-21T05:46:27.495Z,75.37
2019-05-21T05:47:31.123Z,75.24
2019-05-21T05:48:36.390Z,75.46
2019-05-21T05:49:42.087Z,75.47
2019-05-21T05:50:50.141Z,75.47
2019-05-21T05:51:53.978Z,74.68
2019-05-21T05:52:58.317Z,74.73
2019-05-21T05:54:02.127Z,74.29
2019-05-21T05:55:07.978Z,74.64
2019-05-21T05:56:14.038Z,74.74
2019-05-21T05:57:18.359Z,74.40
2019-05-21T05:58:22.175Z,74.40
2019-05-21T05:59:26.389Z,74.37
2019-05-21T06:00:30.142Z,73.88
2019-05-21T06:01:34.643Z,73.84
2019-05-21T06:02:38.289Z,73.69
2019-05-21T06:03:42.504Z,73.30
2019-05-21T06:04:46.502Z,72.93
2019-05-21T06:05:50.732Z,72.85
2019-05-21T06:06:54.495Z,72.76
2019-05-21T06:08:00.413Z,72.01
2019-05-21T06:09:05.595Z,71.89
2019-05-21T06:10:09.931Z,71.75
2019-05-21T06:11:13.594Z,71.35
2019-05-21T06:12:17.788Z,70.40
2019-05-21T06:13:21.842Z,70.51
2019-05-21T06:14:26.055Z,69.96
2019-05-21T06:15:29.689Z,69.73
2019-05-21T06:16:33.971Z,68.95
2019-05-21T06:17:37.762Z,68.55
2019-05-21T06:18:42.401Z,68.43
2019-05-21T06:19:46.189Z,68.68
2019-05-21T06:20:50.392Z,68.96
2019-05-21T06:21:54.167Z,68.92
2019-05-21T06:22:58.381Z,67.07
2019-05-21T06:24:02.018Z,66.76
2019-05-21T06:25:08.089Z,66.25
2019-05-21T06:26:11.958Z,66.23
2019-05-21T06:27:16.555Z,66.20
2019-05-21T06:28:20.573Z,65.91
2019-05-21T06:29:24.840Z,65.39
2019-05-21T06:30:28.543Z,63.71
2019-05-21T06:31:32.728Z,63.24
2019-05-21T06:32:36.429Z,63.90
2019-05-21T06:33:40.614Z,63.26
2019-05-21T06:34:44.680Z,63.32
2019-05-21T06:35:48.883Z,62.87
2019-05-21T06:36:52.518Z,63.14
2019-05-21T06:37:57.183Z,62.96
2019-05-21T06:39:00.843Z,62.47
2019-05-21T06:40:06.254Z,60.59
2019-05-21T06:41:10.057Z,62.20
2019-05-21T06:42:14.264Z,59.84
2019-05-21T06:43:17.932Z,59.67
2019-05-21T06:44:22.150Z,59.75
2019-05-21T06:45:25.979Z,60.04
2019-05-21T06:46:30.184Z,60.05
2019-05-21T06:47:33.816Z,59.01
2019-05-21T06:48:38.036Z,58.17
2019-05-21T06:49:41.694Z,57.82
2019-05-21T06:50:45.873Z,57.12
2019-05-21T06:51:49.547Z,57.28
2019-05-21T06:52:53.756Z,57.04
2019-05-21T06:53:57.439Z,56.52
2019-05-21T06:55:01.657Z,55.60
2019-05-21T06:56:07.673Z,56.00
2019-05-21T06:57:11.277Z,56.55
2019-05-21T06:58:14.935Z,58.03
2019-05-21T06:59:19.198Z,55.82
2019-05-21T07:00:23.057Z,55.83
2019-05-21T07:01:29.182Z,56.44
2019-05-21T07:02:32.568Z,55.70
2019-05-21T07:03:36.699Z,55.38
2019-05-21T07:04:40.387Z,55.46
2019-05-21T07:05:58.223Z,55.34
2019-05-21T07:06:49.978Z,55.14
2019-05-21T07:07:54.900Z,54.90
2019-05-21T07:08:58.531Z,54.75
2019-05-21T07:10:02.884Z,54.14
2019-05-21T07:11:06.970Z,52.19
2019-05-21T07:12:11.571Z,48.85
2019-05-21T07:13:15.298Z,47.31
2019-05-21T07:14:19.580Z,47.11
2019-05-21T07:15:23.289Z,48.26
2019-05-21T07:16:27.474Z,47.90
2019-05-21T07:17:31.138Z,45.76
2019-05-21T07:18:35.338Z,45.38
2019-05-21T07:19:39.538Z,44.70
2019-05-21T07:20:43.804Z,45.54
2019-05-21T07:21:47.799Z,46.43
2019-05-21T07:22:52.166Z,45.84
2019-05-21T07:23:55.936Z,44.51
2019-05-21T07:25:00.151Z,44.69
2019-05-21T07:26:04.206Z,44.30
2019-05-21T07:27:08.800Z,44.92
2019-05-21T07:28:12.512Z,45.12
2019-05-21T07:29:16.707Z,44.14
2019-05-21T07:30:20.346Z,42.41
2019-05-21T07:31:24.595Z,41.48
2019-05-21T07:32:28.267Z,40.53
2019-05-21T07:33:32.791Z,40.91
2019-05-21T07:34:36.424Z,40.60
2019-05-21T07:35:40.609Z,40.84
2019-05-21T07:36:44.315Z,40.95
2019-05-21T07:37:48.514Z,40.68
2019-05-21T07:38:54.140Z,39.82
2019-05-21T07:39:58.063Z,39.51
2019-05-21T07:41:01.816Z,38.68
2019-05-21T07:42:06.015Z,39.65
2019-05-21T07:43:09.685Z,36.97
2019-05-21T07:44:13.973Z,38.93
2019-05-21T07:45:17.606Z,39.17
2019-05-21T07:46:21.836Z,39.82
2019-05-21T07:47:25.481Z,38.54
2019-05-21T07:48:29.720Z,36.47
2019-05-21T07:49:33.392Z,36.33
2019-05-21T07:50:37.606Z,37.03
2019-05-21T07:51:41.543Z,35.46
2019-05-21T07:52:45.785Z,36.67
2019-05-21T07:53:49.820Z,38.29
2019-05-21T07:54:54.021Z,38.35
2019-05-21T07:55:57.732Z,36.14
2019-05-21T07:57:01.952Z,36.18
2019-05-21T07:58:05.617Z,36.39
2019-05-21T07:59:09.800Z,36.60
2019-05-21T08:00:13.555Z,36.88
2019-05-21T08:01:17.867Z,35.93
2019-05-21T08:02:21.531Z,33.41
2019-05-21T08:03:25.756Z,34.62
2019-05-21T08:04:29.744Z,32.52
2019-05-21T08:05:33.955Z,34.13
2019-05-21T08:06:37.610Z,32.99
2019-05-21T08:07:41.802Z,31.66
2019-05-21T08:08:45.583Z,31.63
2019-05-21T08:09:49.804Z,31.90
2019-05-21T08:10:53.436Z,32.65
2019-05-21T08:11:57.628Z,29.84
2019-05-21T08:13:01.383Z,29.37
2019-05-21T08:14:06.001Z,29.79
2019-05-21T08:15:10.029Z,29.28
2019-05-21T08:16:14.108Z,30.22
2019-05-21T08:17:17.691Z,30.28
2019-05-21T08:18:22.007Z,29.87
2019-05-21T08:19:25.657Z,28.41
2019-05-21T08:20:30.095Z,28.40
2019-05-21T08:21:33.750Z,30.07
2019-05-21T08:22:37.942Z,30.30
2019-05-21T08:23:41.589Z,28.74
2019-05-21T08:24:45.753Z,28.36
2019-05-21T08:25:49.740Z,27.95
2019-05-21T08:26:53.999Z,26.94
2019-05-21T08:27:57.634Z,26.69
2019-05-21T08:29:01.904Z,26.91
2019-05-21T08:30:07.484Z,26.57
2019-05-21T08:31:12.077Z,27.50
2019-05-21T08:32:15.633Z,26.20
2019-05-21T08:33:20.259Z,27.34
2019-05-21T08:34:23.927Z,26.67
2019-05-21T08:35:28.217Z,26.58
2019-05-21T08:36:32.220Z,26.71
2019-05-21T08:37:36.408Z,27.90
2019-05-21T08:38:40.091Z,28.03
2019-05-21T08:39:44.373Z,28.78
2019-05-21T08:40:48.007Z,29.78
2019-05-21T08:41:52.263Z,27.52
2019-05-21T08:42:55.895Z,27.10
2019-05-21T08:44:00.078Z,28.56
2019-05-21T08:45:05.352Z,29.23
2019-05-21T08:46:09.761Z,29.14
2019-05-21T08:47:13.401Z,30.80
2019-05-21T08:48:17.589Z,30.51
2019-05-21T08:49:21.319Z,30.28
2019-05-21T08:50:25.607Z,31.57
2019-05-21T08:51:29.260Z,30.85
2019-05-21T08:52:33.462Z,32.57
2019-05-21T08:53:37.097Z,31.25
2019-05-21T08:54:50.977Z,32.41
2019-05-21T08:55:54.669Z,31.06
2019-05-21T08:56:59.246Z,30.77
2019-05-21T08:58:07.274Z,30.70
2019-05-21T08:59:08.804Z,30.48
2019-05-21T09:00:15.580Z,31.42
2019-05-21T09:01:19.816Z,30.78
2019-05-21T09:02:24.628Z,31.34
2019-05-21T09:03:29.231Z,30.66
2019-05-21T09:04:45.994Z,30.47
2019-05-21T09:05:38.778Z,31.21
2019-05-21T09:06:42.470Z,30.65
2019-05-21T09:07:52.919Z,32.04
2019-05-21T09:08:52.042Z,32.95
2019-05-21T09:09:56.243Z,33.16
2019-05-21T09:11:00.263Z,32.84
2019-05-21T09:12:04.496Z,32.60
2019-05-21T09:13:08.126Z,32.64
2019-05-21T09:14:12.700Z,33.29
2019-05-21T09:15:17.306Z,32.98
2019-05-21T09:16:21.516Z,32.84
2019-05-21T09:17:25.328Z,32.45
2019-05-21T09:18:29.572Z,33.14
2019-05-21T09:19:36.451Z,33.18
2019-05-21T09:20:39.136Z,33.38
2019-05-21T09:21:42.785Z,33.53
2019-05-21T09:22:47.026Z,33.67
2019-05-21T09:23:50.727Z,34.22
2019-05-21T09:24:54.941Z,34.51
2019-05-21T09:25:58.591Z,35.09
2019-05-21T09:27:02.835Z,34.52
2019-05-21T09:28:06.600Z,34.49
2019-05-21T09:29:10.906Z,34.26
2019-05-21T09:30:16.823Z,34.13
2019-05-21T09:31:21.016Z,32.28
2019-05-21T09:32:24.676Z,32.96
2019-05-21T09:33:28.955Z,32.71
2019-05-21T09:34:47.536Z,33.63
2019-05-21T09:35:38.562Z,34.47
2019-05-21T09:36:42.180Z,33.48
2019-05-21T09:37:46.463Z,33.67
2019-05-21T09:38:50.145Z,30.97
2019-05-21T09:39:54.351Z,32.49
2019-05-21T09:40:58.032Z,30.84
2019-05-21T09:42:02.478Z,30.89
2019-05-21T09:43:06.088Z,31.72
2019-05-21T09:44:10.329Z,31.86
2019-05-21T09:45:14.899Z,30.87
2019-05-21T09:46:19.081Z,30.74
2019-05-21T09:47:22.743Z,30.05
2019-05-21T09:48:26.986Z,30.14
2019-05-21T09:49:30.645Z,28.56
2019-05-21T09:50:35.822Z,28.67
2019-05-21T09:51:39.777Z,29.71
2019-05-21T09:52:43.958Z,29.21
2019-05-21T09:53:47.616Z,28.21
2019-05-21T09:54:51.932Z,30.24
2019-05-21T09:55:55.998Z,27.78
2019-05-21T09:57:00.271Z,27.90
2019-05-21T09:58:05.552Z,28.20
2019-05-21T09:59:15.022Z,26.93
2019-05-21T10:00:36.210Z,28.06
2019-05-21T10:01:41.961Z,27.53
2019-05-21T10:02:46.131Z,28.61
2019-05-21T10:03:54.549Z,28.75
2019-05-21T10:04:58.861Z,28.51
2019-05-21T10:06:02.558Z,29.18
2019-05-21T10:07:06.786Z,29.52
2019-05-21T10:08:10.430Z,29.42
2019-05-21T10:09:19.147Z,29.54
2019-05-21T10:10:22.856Z,29.56
2019-05-21T10:11:27.061Z,30.50
2019-05-21T10:12:30.866Z,31.39
2019-05-21T10:13:35.127Z,31.37
2019-05-21T10:14:38.828Z,29.75
2019-05-21T10:15:43.071Z,30.37
2019-05-21T10:16:46.770Z,30.37
2019-05-21T10:17:53.055Z,30.50
2019-05-21T10:18:57.042Z,30.33
2019-05-21T10:20:01.246Z,30.90
2019-05-21T10:21:05.182Z,31.25
2019-05-21T10:22:10.089Z,29.07
2019-05-21T10:23:14.142Z,29.81
2019-05-21T10:24:18.351Z,29.80
2019-05-21T10:25:22.020Z,30.52
2019-05-21T10:26:26.369Z,29.48
2019-05-21T10:27:30.090Z,29.07
2019-05-21T10:28:34.306Z,29.65
2019-05-21T10:29:38.280Z,29.06
2019-05-21T10:30:42.564Z,29.09
2019-05-21T10:31:46.296Z,30.27
2019-05-21T10:32:50.562Z,30.23
2019-05-21T10:33:54.351Z,30.62
2019-05-21T10:35:00.553Z,30.47
2019-05-21T10:36:04.884Z,29.46
2019-05-21T10:37:09.103Z,29.60
2019-05-21T10:38:12.845Z,28.40
2019-05-21T10:39:17.212Z,27.92
2019-05-21T10:40:21.235Z,28.71
2019-05-21T10:41:25.489Z,29.60
2019-05-21T10:42:29.082Z,29.69
2019-05-21T10:43:33.338Z,30.69
2019-05-21T10:44:37.141Z,30.59
2019-05-21T10:45:41.325Z,31.20
2019-05-21T10:46:45.099Z,30.98
2019-05-21T10:47:49.120Z,30.63
2019-05-21T10:48:52.824Z,31.53
2019-05-21T10:49:57.048Z,30.68
2019-05-21T10:51:01.477Z,30.42
2019-05-21T10:52:06.172Z,30.02
2019-05-21T10:53:09.817Z,30.39
2019-05-21T10:54:14.035Z,29.88
2019-05-21T10:55:17.901Z,29.67
2019-05-21T10:56:22.120Z,30.26
2019-05-21T10:57:26.261Z,30.22
2019-05-21T10:58:30.672Z,29.71
2019-05-21T10:59:34.384Z,28.63
2019-05-21T11:00:38.799Z,28.43
2019-05-21T11:01:56.182Z,29.62
2019-05-21T11:03:07.384Z,29.98
2019-05-21T11:04:15.436Z,29.87
2019-05-21T11:05:36.396Z,30.22
2019-05-21T11:06:41.435Z,31.36
2019-05-21T11:07:45.753Z,29.76
2019-05-21T11:08:49.424Z,29.86
2019-05-21T11:09:53.669Z,30.84
2019-05-21T11:10:57.464Z,30.42
2019-05-21T11:12:01.805Z,31.24
2019-05-21T11:13:05.713Z,30.94
2019-05-21T11:14:10.292Z,32.65
2019-05-21T11:15:14.609Z,33.17
2019-05-21T11:16:18.795Z,32.35
2019-05-21T11:17:22.498Z,32.94
2019-05-21T11:18:26.670Z,33.67
2019-05-21T11:19:33.226Z,33.00
2019-05-21T11:20:37.559Z,30.89
2019-05-21T11:21:41.263Z,32.14
2019-05-21T11:22:45.556Z,29.03
2019-05-21T11:23:49.256Z,28.86
2019-05-21T11:24:53.669Z,27.57
2019-05-21T11:25:57.326Z,27.05
2019-05-21T11:27:04.728Z,28.49
2019-05-21T11:28:07.518Z,27.96
2019-05-21T11:29:11.703Z,28.31
2019-05-21T11:30:17.180Z,28.89
2019-05-21T11:31:21.374Z,28.62
2019-05-21T11:32:25.077Z,27.48
2019-05-21T11:33:29.339Z,27.94
2019-05-21T11:34:33.106Z,28.99
2019-05-21T11:35:37.374Z,30.29
2019-05-21T11:36:41.155Z,30.69
2019-05-21T11:37:47.845Z,30.36
2019-05-21T11:38:50.817Z,32.17
2019-05-21T11:39:55.058Z,32.08
2019-05-21T11:40:58.807Z,29.02
2019-05-21T11:42:03.051Z,27.68
2019-05-21T11:43:07.874Z,26.42
2019-05-21T11:44:12.217Z,26.30
2019-05-21T11:45:31.072Z,25.99
2019-05-21T11:46:21.986Z,26.97
2019-05-21T11:47:25.766Z,26.35
2019-05-21T11:48:30.199Z,27.36
2019-05-21T11:49:33.862Z,27.23
2019-05-21T11:50:38.091Z,28.46
2019-05-21T11:51:42.096Z,27.68
2019-05-21T11:52:46.594Z,26.74
2019-05-21T11:53:50.275Z,27.20
2019-05-21T11:54:55.999Z,26.71
2019-05-21T11:55:59.695Z,27.45
2019-05-21T11:57:03.923Z,27.21
2019-05-21T11:58:07.578Z,26.82
2019-05-21T11:59:11.850Z,27.82
2019-05-21T12:00:16.642Z,27.86
2019-05-21T12:01:22.544Z,27.76
2019-05-21T12:02:26.206Z,28.06
2019-05-21T12:03:30.392Z,27.31
2019-05-21T12:04:34.430Z,26.67
2019-05-21T12:05:38.680Z,27.07
2019-05-21T12:06:42.333Z,26.64
2019-05-21T12:07:46.524Z,28.12
2019-05-21T12:08:56.794Z,27.38
2019-05-21T12:09:56.189Z,26.58
2019-05-21T12:10:59.856Z,25.75
2019-05-21T12:12:04.071Z,26.64
2019-05-21T12:13:07.792Z,26.39
2019-05-21T12:14:11.976Z,25.76
2019-05-21T12:15:16.037Z,25.63
2019-05-21T12:16:20.348Z,25.64
2019-05-21T12:17:23.985Z,24.87
2019-05-21T12:18:28.232Z,25.01
2019-05-21T12:19:31.886Z,24.90
2019-05-21T12:20:37.492Z,24.81
2019-05-21T12:21:41.785Z,25.44
2019-05-21T12:22:46.418Z,24.88
2019-05-21T12:23:50.075Z,25.41
2019-05-21T12:24:54.324Z,26.21
2019-05-21T12:25:58.043Z,25.91
2019-05-21T12:27:02.327Z,25.26
2019-05-21T12:28:06.039Z,26.43
2019-05-21T12:29:10.285Z,25.47
2019-05-21T12:30:14.589Z,25.18
2019-05-21T12:31:18.790Z,26.10
2019-05-21T12:32:22.687Z,25.22
2019-05-21T12:33:26.971Z,25.14
2019-05-21T12:34:30.604Z,24.86
2019-05-21T12:35:34.819Z,25.94
2019-05-21T12:36:38.503Z,25.11
2019-05-21T12:37:42.579Z,25.92
2019-05-21T12:38:46.322Z,26.46
2019-05-21T12:39:50.584Z,25.92
2019-05-21T12:40:54.221Z,24.22
2019-05-21T12:41:58.603Z,24.78
2019-05-21T12:43:02.358Z,24.41
2019-05-21T12:44:06.595Z,25.04
2019-05-21T12:45:10.491Z,24.57
2019-05-21T12:46:14.780Z,24.58
2019-05-21T12:47:18.419Z,24.38
2019-05-21T12:48:22.738Z,25.13
2019-05-21T12:49:26.524Z,24.47
2019-05-21T12:50:30.681Z,25.28
2019-05-21T12:51:34.734Z,25.39
2019-05-21T12:52:40.230Z,24.12
2019-05-21T12:53:43.899Z,24.54
2019-05-21T12:54:48.104Z,25.16
2019-05-21T12:55:51.829Z,25.15
2019-05-21T12:56:56.018Z,26.00
2019-05-21T12:57:59.659Z,26.32
2019-05-21T12:59:04.009Z,25.37
2019-05-21T13:00:10.813Z,25.15
2019-05-21T13:01:15.003Z,25.68
2019-05-21T13:02:19.211Z,26.08
2019-05-21T13:03:23.927Z,25.58
2019-05-21T13:04:27.575Z,25.56
2019-05-21T13:05:31.839Z,25.22
2019-05-21T13:06:35.721Z,26.07
2019-05-21T13:07:40.042Z,26.75
2019-05-21T13:08:43.973Z,25.99
2019-05-21T13:09:48.194Z,25.91
2019-05-21T13:10:52.047Z,24.93
2019-05-21T13:11:56.470Z,26.02
2019-05-21T13:13:00.104Z,26.80
2019-05-21T13:14:07.946Z,26.07
2019-05-21T13:15:11.891Z,24.24
2019-05-21T13:16:16.280Z,24.39
2019-05-21T13:17:19.936Z,24.91
2019-05-21T13:18:24.453Z,25.87
2019-05-21T13:19:28.123Z,26.09
2019-05-21T13:20:32.411Z,26.16
2019-05-21T13:21:36.136Z,26.00
2019-05-21T13:22:40.325Z,25.80
2019-05-21T13:23:43.957Z,26.89
2019-05-21T13:24:48.576Z,26.14
2019-05-21T13:25:52.208Z,26.85
2019-05-21T13:26:56.460Z,26.52
2019-05-21T13:28:00.108Z,26.05
2019-05-21T13:29:04.397Z,27.51
2019-05-21T13:30:08.832Z,27.86
2019-05-21T13:31:13.054Z,27.28
2019-05-21T13:32:16.807Z,27.50
2019-05-21T13:33:21.020Z,27.68
2019-05-21T13:34:24.638Z,27.54
2019-05-21T13:35:29.652Z,26.94
2019-05-21T13:36:33.290Z,26.47
2019-05-21T13:37:37.529Z,25.55
2019-05-21T13:38:41.184Z,25.66
2019-05-21T13:39:50.126Z,26.98
2019-05-21T13:40:51.939Z,26.42
2019-05-21T13:41:56.243Z,26.06
2019-05-21T13:42:59.900Z,26.00
2019-05-21T13:44:04.101Z,26.73
2019-05-21T13:45:11.330Z,26.98
2019-05-21T13:46:15.603Z,25.69
2019-05-21T13:47:19.263Z,27.26
2019-05-21T13:48:23.472Z,27.34
2019-05-21T13:49:27.521Z,27.50
2019-05-21T13:50:31.927Z,26.96
2019-05-21T13:51:35.719Z,27.33
2019-05-21T13:52:39.986Z,27.30
2019-05-21T13:53:43.642Z,26.39